Time;durP1;ratioP1;P1;durP2;ratioP2;P2;SDS_P1;SDS_P2;PMS_P1;PMS_P2;Temp;Humidity;BMP_temperature;BMP_pressure;BME280_temperature;BME280_humidity;BME280_pressure;Samples;Min_cycle;Max_cycle;Signal;HPM_P1;HPM_P2
2023/10/13 00:01:33;;;;;;;;;;;21.70;90.00;;;;;;4951190;28;96468;-40
2023/10/13 00:03:59;;;;;;;;;;;21.70;90.00;;;;;;4948287;28;96027;-41
2023/10/13 00:06:26;;;;;;;;;;;21.70;90.00;;;;;;4946852;28;95662;-39
2023/10/13 00:08:52;;;;;;;;;;;21.70;90.00;;;;;;4951419;28;94829;-41
2023/10/13 00:11:19;;;;;;;;;;;21.70;89.70;;;;;;4949782;28;95370;-40
2023/10/13 00:13:54;;;;;;;;;;;21.70;89.80;;;;;;4951465;28;101516;-39
2023/10/13 00:16:27;;;;;;;;;;;21.70;89.60;;;;;;4946325;28;95169;-39
2023/10/13 00:18:57;;;;;;;;;;;21.70;89.60;;;;;;4958389;28;95330;-42
2023/10/13 00:21:32;;;;;;;;;;;21.70;89.50;;;;;;4953173;28;96777;-40
2023/10/13 00:24:00;;;;;;;;;;;21.70;89.50;;;;;;4956964;28;95536;-40
2023/10/13 00:26:28;;;;;;;;;;;21.70;89.40;;;;;;4943771;28;95541;-39
2023/10/13 00:31:36;;;;;;;;;;;21.60;89.30;;;;;;4948570;28;94813;-40
2023/10/13 00:34:09;;;;;;;;;;;21.70;89.20;;;;;;4949297;28;95693;-41
2023/10/13 00:36:35;;;;;;;;;;;21.60;89.30;;;;;;4949384;28;95675;-40
2023/10/13 00:39:01;;;;;;;;;;;21.70;89.20;;;;;;4954750;28;94729;-41
2023/10/13 00:44:11;;;;;;;;;;;21.70;89.10;;;;;;4951072;28;95331;-40
2023/10/13 00:46:38;;;;;;;;;;;21.60;89.20;;;;;;4947630;28;93962;-40
2023/10/13 00:49:05;;;;;;;;;;;21.60;89.20;;;;;;4959004;28;94316;-40
2023/10/13 00:51:40;;;;;;;;;;;21.60;89.20;;;;;;4955448;28;94587;-41
2023/10/13 00:54:13;;;;;;;;;;;21.60;89.10;;;;;;4952053;28;97996;-40
2023/10/13 00:59:26;;;;;;;;;;;21.60;88.80;;;;;;4945096;28;99012;-42
2023/10/13 01:01:55;;;;;;;;;;;21.60;88.80;;;;;;4948720;28;96532;-43
2023/10/13 01:04:23;;;;;;;;;;;21.60;88.80;;;;;;4943001;28;94821;-43
2023/10/13 01:06:48;;;;;;;;;;;21.70;88.80;;;;;;4949224;28;99106;-40
2023/10/13 01:09:16;;;;;;;;;;;21.60;88.70;;;;;;4954303;28;94847;-39
2023/10/13 01:11:42;;;;;;;;;;;21.60;88.80;;;;;;4934851;28;93270;-40
2023/10/13 01:14:11;;;;;;;;;;;21.60;88.70;;;;;;4960699;28;95283;-40
2023/10/13 01:16:39;;;;;;;;;;;21.60;88.90;;;;;;4946472;28;97849;-42
2023/10/13 01:19:05;;;;;;;;;;;21.60;88.50;;;;;;4955076;28;95801;-40
2023/10/13 01:21:33;;;;;;;;;;;21.60;88.60;;;;;;4948637;28;98255;-41
2023/10/13 01:23:59;;;;;;;;;;;21.60;88.50;;;;;;4953047;28;94687;-39
2023/10/13 01:26:26;;;;;;;;;;;21.60;88.50;;;;;;4952870;28;94702;-40
2023/10/13 01:28:54;;;;;;;;;;;21.50;88.40;;;;;;4963199;28;95210;-40
2023/10/13 01:31:29;;;;;;;;;;;21.60;88.50;;;;;;4951698;28;97069;-40
2023/10/13 01:33:58;;;;;;;;;;;21.60;88.50;;;;;;4953988;28;94671;-40
2023/10/13 01:36:27;;;;;;;;;;;21.50;88.40;;;;;;4958117;28;95106;-40
2023/10/13 01:38:53;;;;;;;;;;;21.50;88.40;;;;;;4952636;28;95437;-39
2023/10/13 01:41:20;;;;;;;;;;;21.50;88.40;;;;;;4952122;28;95718;-41
2023/10/13 01:43:45;;;;;;;;;;;21.50;88.30;;;;;;4951146;28;97314;-40
2023/10/13 01:46:14;;;;;;;;;;;21.50;88.30;;;;;;4953279;28;95082;-41
2023/10/13 01:48:40;;;;;;;;;;;21.50;88.10;;;;;;4951822;28;95101;-39
2023/10/13 01:51:09;;;;;;;;;;;21.50;88.10;;;;;;4950972;28;96419;-39
2023/10/13 01:53:37;;;;;;;;;;;21.50;87.90;;;;;;4959051;28;94672;-40
2023/10/13 01:56:09;;;;;;;;;;;21.50;88.20;;;;;;4956392;28;96346;-40
2023/10/13 01:58:36;;;;;;;;;;;21.50;88.10;;;;;;4952827;28;94946;-40
2023/10/13 02:01:01;;;;;;;;;;;21.50;88.00;;;;;;4949357;28;93734;-38
2023/10/13 02:03:29;;;;;;;;;;;21.50;88.00;;;;;;4949352;28;94970;-38
2023/10/13 02:05:58;;;;;;;;;;;21.50;87.90;;;;;;4956892;28;95734;-38
2023/10/13 02:08:24;;;;;;;;;;;21.50;88.00;;;;;;4950276;28;96081;-38
2023/10/13 02:10:53;;;;;;;;;;;21.50;88.00;;;;;;4954530;28;95124;-38
2023/10/13 02:13:20;;;;;;;;;;;21.50;88.00;;;;;;4945834;28;95299;-38
2023/10/13 02:15:48;;;;;;;;;;;21.50;88.00;;;;;;4957534;28;95194;-38
2023/10/13 02:18:20;;;;;;;;;;;21.50;87.80;;;;;;4950832;28;94899;-38
2023/10/13 02:20:54;;;;;;;;;;;21.50;87.80;;;;;;4953035;28;96110;-38
2023/10/13 02:23:20;;;;;;;;;;;21.50;87.80;;;;;;4958448;28;96374;-38
2023/10/13 02:25:52;;;;;;;;;;;21.50;87.80;;;;;;4954081;28;94459;-38
2023/10/13 02:28:21;;;;;;;;;;;21.50;87.80;;;;;;4950941;28;96560;-38
2023/10/13 02:30:53;;;;;;;;;;;21.50;87.80;;;;;;4954768;28;94755;-37
2023/10/13 02:33:21;;;;;;;;;;;21.50;87.80;;;;;;4946123;28;95726;-38
2023/10/13 02:35:53;;;;;;;;;;;21.50;87.70;;;;;;4950516;28;95355;-38
2023/10/13 02:38:27;;;;;;;;;;;21.50;87.50;;;;;;4949434;28;98062;-38
2023/10/13 02:40:54;;;;;;;;;;;21.50;87.60;;;;;;4955755;28;95710;-37
2023/10/13 02:43:21;;;;;;;;;;;21.50;87.60;;;;;;4951955;28;96123;-38
2023/10/13 02:45:58;;;;;;;;;;;21.40;87.60;;;;;;4955123;28;94835;-39
2023/10/13 02:48:25;;;;;;;;;;;21.50;87.60;;;;;;4950843;28;94909;-37
2023/10/13 02:51:01;;;;;;;;;;;21.50;87.60;;;;;;4953089;28;95234;-37
2023/10/13 02:53:28;;;;;;;;;;;21.50;87.50;;;;;;4951825;28;96573;-38
2023/10/13 02:56:06;;;;;;;;;;;21.50;87.50;;;;;;4946593;28;95398;-38
2023/10/13 02:58:45;;;;;;;;;;;21.50;87.30;;;;;;4948798;28;97050;-38
2023/10/13 03:01:17;;;;;;;;;;;21.50;87.20;;;;;;4952131;28;95232;-38
2023/10/13 03:03:49;;;;;;;;;;;21.50;87.30;;;;;;4949431;28;94935;-38
2023/10/13 03:06:15;;;;;;;;;;;21.50;87.40;;;;;;4947040;28;95304;-39
2023/10/13 03:08:42;;;;;;;;;;;21.40;87.30;;;;;;4944259;28;95178;-38
2023/10/13 03:11:11;;;;;;;;;;;21.50;87.40;;;;;;4945735;28;94790;-37
2023/10/13 03:13:36;;;;;;;;;;;21.50;87.40;;;;;;4953820;28;95242;-38
2023/10/13 03:16:11;;;;;;;;;;;21.50;87.30;;;;;;4944932;28;95205;-38
2023/10/13 03:18:36;;;;;;;;;;;21.50;87.10;;;;;;4957211;28;95134;-38
2023/10/13 03:21:02;;;;;;;;;;;21.50;87.10;;;;;;4954744;28;95829;-37
2023/10/13 03:23:28;;;;;;;;;;;21.50;87.30;;;;;;4945535;28;97222;-38
2023/10/13 03:25:55;;;;;;;;;;;21.50;87.10;;;;;;4939021;28;101487;-38
2023/10/13 03:28:25;;;;;;;;;;;21.50;87.10;;;;;;4949032;28;95557;-38
2023/10/13 03:30:52;;;;;;;;;;;21.40;87.10;;;;;;4950103;28;95251;-38
2023/10/13 03:33:26;;;;;;;;;;;21.50;87.00;;;;;;4949573;28;95554;-37
2023/10/13 03:35:54;;;;;;;;;;;21.40;87.10;;;;;;4947348;28;105608;-38
2023/10/13 03:38:20;;;;;;;;;;;21.50;87.10;;;;;;4956582;28;95559;-38
2023/10/13 03:40:56;;;;;;;;;;;21.50;86.90;;;;;;4947933;28;94933;-38
2023/10/13 03:43:21;;;;;;;;;;;21.50;87.00;;;;;;4952140;28;95920;-37
2023/10/13 03:45:52;;;;;;;;;;;21.40;87.10;;;;;;4953846;28;95274;-38
2023/10/13 03:51:14;;;;;;;;;;;21.40;87.00;;;;;;4954586;28;95151;-38
2023/10/13 03:53:52;;;;;;;;;;;21.40;87.00;;;;;;4948444;28;94640;-38
2023/10/13 03:56:26;;;;;;;;;;;21.40;87.50;;;;;;4951328;28;94817;-38
2023/10/13 03:58:53;;;;;;;;;;;21.40;86.90;;;;;;4947287;28;94747;-38
2023/10/13 04:01:31;;;;;;;;;;;21.40;86.90;;;;;;4940864;28;94970;-38
2023/10/13 04:04:03;;;;;;;;;;;21.40;86.90;;;;;;4950531;28;96492;-37
2023/10/13 04:17:27;;;;;;;;;;;21.40;86.90;;;;;;4955351;28;94750;-38
2023/10/13 04:33:48;;;;;;;;;;;21.40;86.50;;;;;;4945980;28;96292;-38
2023/10/13 04:36:16;;;;;;;;;;;21.40;86.50;;;;;;4948675;28;94761;-37
2023/10/13 04:38:57;;;;;;;;;;;21.40;86.30;;;;;;4941255;28;95912;-38
2023/10/13 04:41:37;;;;;;;;;;;21.40;86.30;;;;;;4942751;28;96332;-38
2023/10/13 04:55:09;;;;;;;;;;;21.30;86.40;;;;;;4955331;28;94743;-38
2023/10/13 04:57:33;;;;;;;;;;;21.30;86.70;;;;;;4953550;28;95128;-38
2023/10/13 06:29:31;;;;;;;;;;;21.40;86.80;;;;;;4950242;28;95675;-41
2023/10/13 06:31:57;;;;;;;;;;;21.40;86.80;;;;;;4951927;28;95328;-42
2023/10/13 06:34:37;;;;;;;;;;;21.40;86.90;;;;;;4946849;28;96098;-41
2023/10/13 06:37:22;;;;;;;;;;;21.50;86.80;;;;;;4952182;28;96598;-39
2023/10/13 06:39:51;;;;;;;;;;;21.40;86.80;;;;;;4951615;28;95349;-41
2023/10/13 06:42:18;;;;;;;;;;;21.40;86.60;;;;;;4941169;28;97091;-38
2023/10/13 06:44:45;;;;;;;;;;;21.40;86.60;;;;;;4951526;28;95975;-38
2023/10/13 06:47:11;;;;;;;;;;;21.40;86.80;;;;;;4945982;28;97680;-38
2023/10/13 06:49:39;;;;;;;;;;;21.40;86.70;;;;;;4947924;28;95419;-39
2023/10/13 06:52:07;;;;;;;;;;;21.40;86.40;;;;;;4949758;28;95664;-38
2023/10/13 06:54:36;;;;;;;;;;;21.40;86.60;;;;;;4939029;28;96911;-40
2023/10/13 06:57:06;;;;;;;;;;;21.40;86.50;;;;;;4953777;28;95999;-38
2023/10/13 06:59:34;;;;;;;;;;;21.40;86.70;;;;;;4933050;28;100359;-38
2023/10/13 07:02:06;;;;;;;;;;;21.40;86.50;;;;;;4942058;28;95593;-38
2023/10/13 07:04:34;;;;;;;;;;;21.40;86.50;;;;;;4940088;28;95022;-38
2023/10/13 07:07:00;;;;;;;;;;;21.40;86.50;;;;;;4957153;28;94824;-39
2023/10/13 07:12:03;;;;;;;;;;;21.40;86.60;;;;;;4954390;28;93860;-38
2023/10/13 07:14:29;;;;;;;;;;;21.40;86.70;;;;;;4952963;28;96465;-38
2023/10/13 07:16:59;;;;;;;;;;;21.40;86.70;;;;;;4949147;28;94986;-38
2023/10/13 07:19:27;;;;;;;;;;;21.40;86.40;;;;;;4955856;28;98242;-38
2023/10/13 07:22:02;;;;;;;;;;;21.40;86.50;;;;;;4946375;28;95892;-38
2023/10/13 07:24:31;;;;;;;;;;;21.40;86.80;;;;;;4954019;28;94610;-39
2023/10/13 07:27:02;;;;;;;;;;;21.40;86.90;;;;;;4951840;28;95269;-38
2023/10/13 07:29:28;;;;;;;;;;;21.40;86.90;;;;;;4940880;28;94650;-40
2023/10/13 07:31:53;;;;;;;;;;;21.40;86.90;;;;;;4950422;28;95436;-38
2023/10/13 07:34:26;;;;;;;;;;;21.40;87.00;;;;;;4941407;28;94720;-39
2023/10/13 07:36:52;;;;;;;;;;;21.40;86.90;;;;;;4942351;28;94452;-38
2023/10/13 07:39:21;;;;;;;;;;;21.40;86.90;;;;;;4951695;28;98329;-38
2023/10/13 07:41:51;;;;;;;;;;;21.40;86.90;;;;;;4941836;28;95458;-38
2023/10/13 07:44:19;;;;;;;;;;;21.40;86.90;;;;;;4950163;28;96066;-40
2023/10/13 07:46:57;;;;;;;;;;;21.40;86.90;;;;;;4942697;28;95466;-39
2023/10/13 07:49:23;;;;;;;;;;;21.40;86.90;;;;;;4948265;28;94841;-38
2023/10/13 07:51:51;;;;;;;;;;;21.40;86.90;;;;;;4944732;28;94740;-38
2023/10/13 07:54:24;;;;;;;;;;;21.40;87.00;;;;;;4945057;28;96779;-38
2023/10/13 07:56:50;;;;;;;;;;;21.40;87.00;;;;;;4945918;28;97509;-39
2023/10/13 07:59:16;;;;;;;;;;;21.40;87.10;;;;;;4946198;28;95110;-38
2023/10/13 08:01:42;;;;;;;;;;;21.40;87.10;;;;;;4945798;28;94960;-38
2023/10/13 08:04:11;;;;;;;;;;;21.40;87.10;;;;;;4943034;28;95951;-39
2023/10/13 08:06:38;;;;;;;;;;;21.40;87.20;;;;;;4949203;28;95293;-39
2023/10/13 08:11:47;;;;;;;;;;;21.40;87.10;;;;;;4951226;28;95954;-38
2023/10/13 08:16:54;;;;;;;;;;;21.40;87.40;;;;;;4941634;28;96187;-39
2023/10/13 08:19:26;;;;;;;;;;;21.40;87.40;;;;;;4947570;28;94824;-38
2023/10/13 08:21:57;;;;;;;;;;;21.40;87.40;;;;;;4941089;28;96464;-39
2023/10/13 08:24:55;;;;;;;;;;;21.40;87.20;;;;;;4947311;28;98544;-39
2023/10/13 08:33:16;;;;;;;;;;;21.40;87.00;;;;;;4941503;28;96385;-39
2023/10/13 08:38:50;;;;;;;;;;;21.40;87.30;;;;;;4947903;28;95083;-40
2023/10/13 08:41:10;;;;;;;;;;;21.50;87.80;;;;;;4923739;28;95072;-40
2023/10/13 08:43:43;;;;;;;;;;;21.50;87.80;;;;;;4940719;28;96675;-41
2023/10/13 08:46:09;;;;;;;;;;;21.50;87.40;;;;;;4951089;28;94881;-41
2023/10/13 08:48:35;;;;;;;;;;;21.50;86.70;;;;;;4941479;28;94772;-42
2023/10/13 08:51:11;;;;;;;;;;;21.50;86.60;;;;;;4948534;28;94641;-41
2023/10/13 08:54:19;;;;;;;;;;;21.50;86.40;;;;;;4945422;28;94347;-42
2023/10/13 08:56:35;;;;;;;;;;;21.50;86.10;;;;;;4928532;28;97395;-40
2023/10/13 09:01:48;;;;;;;;;;;21.50;85.80;;;;;;4948909;28;96620;-42
2023/10/13 09:04:21;;;;;;;;;;;21.50;85.50;;;;;;4944437;28;96397;-41
2023/10/13 09:07:00;;;;;;;;;;;21.50;85.80;;;;;;4951058;28;95170;-42
2023/10/13 09:09:26;;;;;;;;;;;21.50;85.60;;;;;;4943673;28;94998;-43
2023/10/13 09:12:07;;;;;;;;;;;21.50;85.50;;;;;;4952344;28;94781;-41
2023/10/13 09:14:33;;;;;;;;;;;21.50;85.70;;;;;;4954998;28;95189;-43
2023/10/13 09:19:57;;;;;;;;;;;21.50;85.20;;;;;;4911711;28;94433;-40
2023/10/13 09:22:36;;;;;;;;;;;21.50;85.00;;;;;;4938717;28;96029;-44
2023/10/13 09:25:02;;;;;;;;;;;21.50;85.10;;;;;;4947724;28;94666;-42
2023/10/13 09:27:29;;;;;;;;;;;21.50;84.90;;;;;;4943251;28;96256;-39
2023/10/13 09:29:55;;;;;;;;;;;21.50;85.60;;;;;;4949345;28;95755;-43
2023/10/13 09:32:21;;;;;;;;;;;21.50;84.70;;;;;;4950755;28;95614;-40
2023/10/13 09:34:48;;;;;;;;;;;21.50;84.70;;;;;;4955881;28;94931;-40
2023/10/13 09:37:20;;;;;;;;;;;21.50;84.60;;;;;;4957363;28;95029;-45
2023/10/13 09:39:48;;;;;;;;;;;21.50;84.20;;;;;;4957726;28;95421;-42
2023/10/13 09:42:16;;;;;;;;;;;21.50;84.00;;;;;;4950428;28;95292;-41
2023/10/13 09:44:45;;;;;;;;;;;21.50;83.80;;;;;;4954556;28;94206;-42
2023/10/13 09:47:17;;;;;;;;;;;21.50;83.80;;;;;;4949689;28;97267;-41
2023/10/13 09:49:51;;;;;;;;;;;21.50;83.70;;;;;;4943384;28;95284;-40
2023/10/13 09:52:20;;;;;;;;;;;21.50;83.40;;;;;;4955843;28;95598;-42
2023/10/13 09:55:25;;;;;;;;;;;21.50;83.40;;;;;;4950702;28;95067;-41
2023/10/13 09:57:58;;;;;;;;;;;21.50;83.60;;;;;;4910479;28;94672;-41
2023/10/13 10:03:14;;;;;;;;;;;21.50;83.20;;;;;;4925597;28;94875;-41
2023/10/13 10:05:40;;;;;;;;;;;21.50;83.20;;;;;;4939653;28;96309;-41
2023/10/13 10:08:09;;;;;;;;;;;21.50;83.10;;;;;;4948276;28;94842;-41
2023/10/13 10:11:10;;;;;;;;;;;21.60;83.10;;;;;;4946242;28;94546;-39
2023/10/13 10:13:42;;;;;;;;;;;21.60;83.20;;;;;;4893126;28;95082;-39
2023/10/13 10:16:14;;;;;;;;;;;21.60;83.30;;;;;;4936134;28;99190;-39
2023/10/13 10:18:41;;;;;;;;;;;21.60;83.30;;;;;;4945370;28;96694;-39
2023/10/13 10:21:10;;;;;;;;;;;21.60;83.50;;;;;;4949956;28;95018;-40
2023/10/13 10:23:38;;;;;;;;;;;21.50;82.90;;;;;;4947570;28;95255;-39
2023/10/13 10:26:13;;;;;;;;;;;21.50;83.20;;;;;;4930401;28;96051;-39
2023/10/13 10:28:42;;;;;;;;;;;21.60;84.00;;;;;;4948758;28;95780;-39
2023/10/13 10:31:14;;;;;;;;;;;21.60;83.80;;;;;;4942600;28;95725;-39
2023/10/13 10:33:40;;;;;;;;;;;21.60;84.30;;;;;;4952380;28;94889;-42
2023/10/13 10:36:05;;;;;;;;;;;21.60;84.30;;;;;;4950920;28;93713;-40
2023/10/13 10:38:34;;;;;;;;;;;21.70;84.60;;;;;;4953462;28;95627;-40
2023/10/13 10:41:06;;;;;;;;;;;21.80;85.00;;;;;;4940085;28;95517;-40
2023/10/13 10:43:45;;;;;;;;;;;21.90;84.80;;;;;;4944529;28;95798;-40
2023/10/13 10:46:13;;;;;;;;;;;21.90;84.40;;;;;;4949008;28;95520;-40
2023/10/13 10:48:42;;;;;;;;;;;21.80;84.40;;;;;;4949539;28;96942;-39
2023/10/13 10:51:15;;;;;;;;;;;21.80;84.40;;;;;;4956618;28;94746;-40
2023/10/13 10:53:44;;;;;;;;;;;21.80;84.40;;;;;;4950406;28;94735;-40
2023/10/13 10:56:19;;;;;;;;;;;21.80;84.40;;;;;;4953767;28;95461;-40
2023/10/13 10:58:50;;;;;;;;;;;21.80;84.40;;;;;;4937965;28;96073;-40
2023/10/13 11:01:21;;;;;;;;;;;21.80;84.40;;;;;;4951310;28;95560;-42
2023/10/13 11:04:07;;;;;;;;;;;21.80;84.30;;;;;;4938913;28;96315;-40
2023/10/13 11:06:38;;;;;;;;;;;21.70;84.10;;;;;;4951150;28;94610;-40
2023/10/13 11:09:04;;;;;;;;;;;21.70;84.00;;;;;;4954859;28;95888;-40
2023/10/13 11:11:37;;;;;;;;;;;21.80;84.10;;;;;;4952496;28;95433;-40
2023/10/13 11:14:17;;;;;;;;;;;21.80;84.00;;;;;;4949417;28;95357;-39
2023/10/13 11:16:50;;;;;;;;;;;21.80;83.90;;;;;;4944129;28;94784;-40
2023/10/13 11:19:25;;;;;;;;;;;21.80;84.60;;;;;;4949058;28;96591;-40
2023/10/13 11:21:54;;;;;;;;;;;21.80;83.80;;;;;;4946410;28;94602;-42
2023/10/13 11:24:21;;;;;;;;;;;21.80;83.70;;;;;;4956454;28;94662;-41
2023/10/13 11:26:50;;;;;;;;;;;21.80;83.70;;;;;;4946917;28;94304;-40
2023/10/13 11:29:18;;;;;;;;;;;21.80;83.60;;;;;;4950850;28;95253;-40
2023/10/13 11:31:53;;;;;;;;;;;21.80;87.00;;;;;;4949796;28;95119;-40
2023/10/13 11:34:19;;;;;;;;;;;21.90;87.80;;;;;;4948601;28;97111;-41
2023/10/13 11:36:45;;;;;;;;;;;21.90;86.90;;;;;;4955165;28;94915;-43
2023/10/13 11:39:17;;;;;;;;;;;21.90;86.80;;;;;;4931064;28;95099;-41
2023/10/13 11:41:50;;;;;;;;;;;21.90;86.80;;;;;;4947570;28;100970;-40
2023/10/13 11:51:44;;;;;;;;;;;21.90;87.60;;;;;;4938273;28;94311;-41
2023/10/13 11:54:13;;;;;;;;;;;21.90;87.80;;;;;;4948744;28;95257;-40
2023/10/13 11:56:39;;;;;;;;;;;21.90;88.00;;;;;;4949617;28;96577;-40
2023/10/13 11:59:05;;;;;;;;;;;21.90;88.30;;;;;;4954805;28;96436;-40
2023/10/13 12:07:23;;;;;;;;;;;21.90;88.70;;;;;;4940004;28;94888;-43
2023/10/13 12:12:22;;;;;;;;;;;21.90;89.00;;;;;;4939587;28;99242;-42
2023/10/13 12:14:57;;;;;;;;;;;21.90;89.00;;;;;;4929590;28;95220;-42
2023/10/13 12:17:28;;;;;;;;;;;21.90;89.10;;;;;;4944420;28;93990;-40
2023/10/13 12:19:54;;;;;;;;;;;21.90;89.10;;;;;;4950040;28;94972;-40
2023/10/13 12:23:09;;;;;;;;;;;21.90;89.20;;;;;;4949731;28;94371;-40
2023/10/13 12:27:57;;;;;;;;;;;21.90;89.10;;;;;;4946457;28;95116;-40
2023/10/13 12:33:10;;;;;;;;;;;21.90;89.00;;;;;;4946139;28;94572;-42
2023/10/13 12:38:37;;;;;;;;;;;21.90;88.80;;;;;;4946027;28;94689;-40
2023/10/13 12:52:03;;;;;;;;;;;21.90;88.10;;;;;;4945780;28;96903;-40
2023/10/13 12:54:35;;;;;;;;;;;21.90;87.90;;;;;;4947046;28;94949;-40
2023/10/13 12:57:01;;;;;;;;;;;21.90;87.80;;;;;;4936433;28;95631;-40
2023/10/13 12:59:26;;;;;;;;;;;21.90;87.70;;;;;;4940734;28;98497;-40
2023/10/13 13:01:52;;;;;;;;;;;21.90;87.60;;;;;;4944529;28;94798;-42
2023/10/13 13:04:20;;;;;;;;;;;21.90;87.40;;;;;;4943486;28;96222;-40
2023/10/13 13:06:46;;;;;;;;;;;22.00;87.40;;;;;;4946357;28;94744;-41
2023/10/13 13:09:11;;;;;;;;;;;22.00;87.30;;;;;;4946115;28;94867;-40
2023/10/13 13:11:39;;;;;;;;;;;22.00;87.20;;;;;;4951637;28;96068;-42
2023/10/13 13:14:07;;;;;;;;;;;22.00;87.00;;;;;;4952156;28;94686;-40
2023/10/13 13:16:33;;;;;;;;;;;22.00;86.90;;;;;;4952917;28;96614;-40
2023/10/13 13:18:59;;;;;;;;;;;22.00;86.80;;;;;;4952414;28;94732;-42
2023/10/13 13:21:24;;;;;;;;;;;22.00;86.80;;;;;;4957427;28;95375;-40
2023/10/13 13:23:50;;;;;;;;;;;22.00;86.70;;;;;;4949659;28;94735;-41
2023/10/13 13:26:16;;;;;;;;;;;22.00;86.60;;;;;;4954495;28;95869;-41
2023/10/13 13:28:45;;;;;;;;;;;22.00;86.60;;;;;;4945599;28;94914;-39
2023/10/13 13:31:12;;;;;;;;;;;22.00;86.00;;;;;;4952328;28;95485;-39
2023/10/13 13:33:43;;;;;;;;;;;22.00;86.00;;;;;;4940520;28;95923;-41
2023/10/13 13:36:15;;;;;;;;;;;22.00;86.00;;;;;;4936726;28;95503;-40
2023/10/13 13:38:40;;;;;;;;;;;22.00;86.10;;;;;;4944990;28;95456;-40
2023/10/13 13:41:16;;;;;;;;;;;22.00;86.00;;;;;;4935352;28;96814;-40
2023/10/13 13:43:55;;;;;;;;;;;22.00;85.40;;;;;;4949869;28;95593;-40
2023/10/13 13:46:28;;;;;;;;;;;22.00;85.70;;;;;;4958352;28;95318;-40
2023/10/13 13:49:06;;;;;;;;;;;22.00;85.60;;;;;;4950501;28;94738;-40
2023/10/13 13:51:33;;;;;;;;;;;22.00;85.60;;;;;;4948244;28;95295;-39
2023/10/13 13:53:59;;;;;;;;;;;22.00;85.60;;;;;;4947702;28;98356;-39
2023/10/13 13:56:28;;;;;;;;;;;22.00;85.50;;;;;;4955973;28;94535;-39
2023/10/13 13:58:55;;;;;;;;;;;22.00;85.50;;;;;;4953678;28;93866;-39
2023/10/13 14:01:21;;;;;;;;;;;22.00;85.40;;;;;;4931909;28;95299;-41
2023/10/13 14:03:49;;;;;;;;;;;22.00;85.40;;;;;;4955971;28;95363;-40
2023/10/13 14:06:28;;;;;;;;;;;22.00;85.30;;;;;;4946685;28;95761;-39
2023/10/13 14:08:54;;;;;;;;;;;22.00;85.20;;;;;;4944750;28;99287;-39
2023/10/13 14:11:57;;;;;;;;;;;22.00;85.20;;;;;;4947718;28;95716;-40
2023/10/13 14:14:13;;;;;;;;;;;22.00;85.10;;;;;;4945711;28;95027;-39
2023/10/13 14:16:44;;;;;;;;;;;22.00;85.00;;;;;;4947734;28;95567;-39
2023/10/13 14:19:19;;;;;;;;;;;22.00;85.00;;;;;;4934468;28;96093;-39
2023/10/13 14:21:44;;;;;;;;;;;22.00;84.90;;;;;;4948524;28;98177;-39
2023/10/13 14:24:14;;;;;;;;;;;22.00;84.90;;;;;;4945613;28;94936;-39
2023/10/13 14:26:42;;;;;;;;;;;22.00;84.80;;;;;;4951206;28;97132;-40
2023/10/13 14:29:09;;;;;;;;;;;22.00;84.80;;;;;;4950735;28;96405;-40
2023/10/13 14:31:37;;;;;;;;;;;22.00;84.80;;;;;;4946177;28;99223;-39
2023/10/13 14:34:03;;;;;;;;;;;22.00;84.60;;;;;;4949326;28;96632;-41
2023/10/13 14:36:29;;;;;;;;;;;22.00;84.60;;;;;;4956275;28;95455;-39
2023/10/13 14:38:54;;;;;;;;;;;22.00;84.50;;;;;;4949867;28;94772;-39
2023/10/13 14:41:20;;;;;;;;;;;22.00;84.50;;;;;;4946277;28;94788;-41
2023/10/13 14:43:48;;;;;;;;;;;22.00;84.50;;;;;;4943715;28;95090;-39
2023/10/13 14:46:17;;;;;;;;;;;22.00;84.40;;;;;;4948634;28;95055;-40
2023/10/13 14:48:43;;;;;;;;;;;22.00;84.30;;;;;;4938610;28;99861;-39
2023/10/13 14:51:16;;;;;;;;;;;22.00;83.80;;;;;;4948568;28;94753;-39
2023/10/13 14:53:45;;;;;;;;;;;22.00;85.10;;;;;;4954311;28;94778;-39
2023/10/13 14:56:11;;;;;;;;;;;22.10;86.40;;;;;;4934132;28;96048;-40
2023/10/13 14:58:42;;;;;;;;;;;22.10;85.60;;;;;;4927911;28;95703;-40
2023/10/13 15:01:17;;;;;;;;;;;22.20;87.10;;;;;;4946032;28;96245;-43
2023/10/13 15:03:46;;;;;;;;;;;22.20;86.90;;;;;;4945457;28;95500;-43
2023/10/13 15:06:30;;;;;;;;;;;22.20;86.80;;;;;;4949290;28;94964;-43
2023/10/13 15:08:56;;;;;;;;;;;22.20;86.70;;;;;;4944664;28;94710;-42
2023/10/13 15:11:26;;;;;;;;;;;22.20;86.60;;;;;;4955465;28;97644;-43
2023/10/13 15:13:52;;;;;;;;;;;22.20;86.50;;;;;;4945549;28;98105;-41
2023/10/13 15:16:18;;;;;;;;;;;22.20;86.40;;;;;;4936272;28;95157;-42
2023/10/13 15:18:51;;;;;;;;;;;22.20;86.20;;;;;;4932350;28;94401;-41
2023/10/13 15:21:50;;;;;;;;;;;22.20;86.10;;;;;;4929049;28;96136;-43
2023/10/13 15:24:13;;;;;;;;;;;22.20;85.90;;;;;;4946962;28;94615;-42
2023/10/13 15:26:41;;;;;;;;;;;22.20;85.70;;;;;;4935143;28;95187;-43
2023/10/13 15:29:12;;;;;;;;;;;22.20;85.60;;;;;;4928885;28;101545;-42
2023/10/13 15:31:41;;;;;;;;;;;22.20;85.50;;;;;;4945607;28;95766;-42
2023/10/13 15:34:14;;;;;;;;;;;22.20;85.10;;;;;;4931126;28;96261;-42
2023/10/13 15:36:42;;;;;;;;;;;22.20;84.80;;;;;;4933885;28;95191;-42
2023/10/13 15:39:10;;;;;;;;;;;22.30;84.70;;;;;;4934528;28;94684;-42
2023/10/13 15:41:37;;;;;;;;;;;22.30;84.50;;;;;;4940723;28;101080;-41
2023/10/13 15:44:06;;;;;;;;;;;22.30;84.40;;;;;;4934521;28;97028;-42
2023/10/13 15:46:31;;;;;;;;;;;22.30;84.20;;;;;;4930565;28;96434;-41
2023/10/13 15:48:57;;;;;;;;;;;22.30;84.20;;;;;;4941508;28;95264;-42
2023/10/13 15:51:22;;;;;;;;;;;22.30;84.00;;;;;;4929231;28;96258;-43
2023/10/13 15:53:48;;;;;;;;;;;22.30;83.90;;;;;;4943804;28;95723;-43
2023/10/13 15:56:14;;;;;;;;;;;22.30;83.90;;;;;;4941529;28;95966;-42
2023/10/13 15:58:40;;;;;;;;;;;22.30;83.70;;;;;;4950063;28;96311;-42
2023/10/13 16:01:08;;;;;;;;;;;22.30;83.70;;;;;;4941646;28;95194;-41
2023/10/13 16:03:34;;;;;;;;;;;22.30;83.70;;;;;;4945376;28;94923;-42
2023/10/13 16:06:04;;;;;;;;;;;22.30;83.60;;;;;;4938493;28;94979;-42
2023/10/13 16:08:31;;;;;;;;;;;22.40;83.60;;;;;;4945116;28;94741;-43
2023/10/13 16:11:04;;;;;;;;;;;22.30;83.30;;;;;;4946169;28;95813;-43
2023/10/13 16:13:31;;;;;;;;;;;22.30;83.30;;;;;;4936614;28;95920;-43
2023/10/13 16:15:56;;;;;;;;;;;22.30;83.30;;;;;;4946005;28;97200;-43
2023/10/13 16:18:22;;;;;;;;;;;22.30;83.10;;;;;;4949729;28;94832;-42
2023/10/13 16:20:47;;;;;;;;;;;22.30;83.00;;;;;;4953001;28;94643;-42
2023/10/13 16:23:16;;;;;;;;;;;22.30;82.90;;;;;;4953695;28;98257;-41
2023/10/13 16:25:43;;;;;;;;;;;22.30;83.00;;;;;;4949718;28;94805;-44
2023/10/13 16:28:12;;;;;;;;;;;22.40;82.80;;;;;;4952852;28;94028;-43
2023/10/13 16:30:37;;;;;;;;;;;22.30;82.60;;;;;;4945478;28;94638;-42
2023/10/13 16:33:03;;;;;;;;;;;22.30;82.50;;;;;;4953139;28;96304;-43
2023/10/13 16:35:33;;;;;;;;;;;22.30;82.40;;;;;;4947377;28;95625;-42
2023/10/13 16:38:03;;;;;;;;;;;22.30;82.40;;;;;;4954200;28;95013;-42
2023/10/13 16:40:29;;;;;;;;;;;22.30;82.30;;;;;;4945215;28;95146;-42
2023/10/13 16:42:55;;;;;;;;;;;22.40;82.30;;;;;;4950476;28;94700;-40
2023/10/13 16:45:20;;;;;;;;;;;22.30;82.00;;;;;;4953193;28;95078;-43
2023/10/13 16:47:47;;;;;;;;;;;22.40;82.20;;;;;;4956027;28;95167;-41
2023/10/13 16:50:14;;;;;;;;;;;22.40;82.00;;;;;;4953105;28;94925;-41
2023/10/13 16:52:40;;;;;;;;;;;22.40;82.00;;;;;;4952966;28;98305;-44
2023/10/13 16:55:08;;;;;;;;;;;22.40;81.80;;;;;;4939851;28;95242;-41
2023/10/13 16:57:34;;;;;;;;;;;22.40;81.80;;;;;;4940330;28;96391;-42
2023/10/13 17:00:05;;;;;;;;;;;22.40;81.70;;;;;;4951468;28;96279;-44
2023/10/13 17:02:31;;;;;;;;;;;22.40;81.50;;;;;;4943827;28;95690;-41
2023/10/13 17:04:57;;;;;;;;;;;22.40;81.30;;;;;;4943619;28;96516;-43
2023/10/13 17:07:24;;;;;;;;;;;22.50;81.40;;;;;;4952324;28;94922;-42
2023/10/13 17:09:50;;;;;;;;;;;22.40;81.30;;;;;;4946609;28;94982;-42
2023/10/13 17:12:16;;;;;;;;;;;22.40;81.10;;;;;;4949551;28;94683;-42
2023/10/13 17:14:41;;;;;;;;;;;22.40;80.90;;;;;;4950784;28;95310;-42
2023/10/13 17:17:08;;;;;;;;;;;22.40;81.00;;;;;;4949175;28;94531;-43
2023/10/13 17:19:33;;;;;;;;;;;22.40;80.90;;;;;;4951662;28;95605;-42
2023/10/13 17:21:59;;;;;;;;;;;22.40;80.80;;;;;;4945258;28;95614;-41
2023/10/13 17:24:24;;;;;;;;;;;22.40;80.90;;;;;;4950194;28;96195;-43
2023/10/13 17:26:50;;;;;;;;;;;22.40;80.80;;;;;;4942984;28;94775;-42
2023/10/13 17:29:16;;;;;;;;;;;22.40;81.20;;;;;;4944637;28;95139;-46
2023/10/13 17:31:41;;;;;;;;;;;22.40;81.20;;;;;;4938868;28;98480;-40
2023/10/13 17:34:07;;;;;;;;;;;22.40;81.30;;;;;;4946604;28;96120;-39
2023/10/13 17:36:32;;;;;;;;;;;22.30;81.20;;;;;;4947273;28;94936;-39
2023/10/13 17:38:58;;;;;;;;;;;22.30;81.20;;;;;;4947040;28;95099;-41
2023/10/13 17:41:23;;;;;;;;;;;22.30;81.30;;;;;;4947070;28;94756;-40
2023/10/13 17:43:49;;;;;;;;;;;22.30;81.30;;;;;;4946974;28;96738;-40
2023/10/13 17:46:15;;;;;;;;;;;22.30;81.40;;;;;;4949781;28;96337;-41